CW1500 Weather Reports


Display with metric or nautical units.
time (UTC)temp
F
wind
direction
speed
MPH
gust
MPH
rain 1hr
in
rain 24hr
in
rain mn
in
humidity
%
barometer
mb
20210926053124 59 271 0.0 4.0 0.00 0.01 0.00 79 1018.0
20210926050124 60 286 2.0 8.0 0.00 0.01 0.00 80 1018.0
20210926043122 60 320 1.0 4.0 0.00 0.01 0.00 82 1018.1
20210926040121 61 323 0.0 0.0 0.00 0.01 0.00 81 1018.1
20210926033118 62 323 0.0 4.0 0.00 0.01 0.01 80 1017.8
20210926030119 63 323 0.0 2.0 0.00 0.01 0.01 79 1017.6
20210926023135 62 325 0.0 1.0 0.00 0.01 0.01 82 1017.3
20210926020133 61 325 0.0 0.0 0.00 0.01 0.01 86 1017.2
20210926013131 61 326 0.0 0.0 0.00 0.01 0.01 86 1016.9
20210926010129 61 326 0.0 3.0 0.00 0.01 0.01 87 1016.7
20210926003126 61 326 0.0 0.0 0.00 0.01 0.01 87 1016.2
20210926000121 62 326 0.0 0.0 0.00 0.01 0.01 82 1016.1
20210925233118 65 326 0.0 0.0 0.00 0.01 0.01 74 1016.0
20210925230119 69 326 0.0 0.0 0.00 0.01 0.01 66 1016.1
20210925223136 73 326 0.0 1.0 0.00 0.01 0.01 57 1016.1
20210925220134 75 326 1.0 4.0 0.00 0.01 0.01 54 1015.9
20210925213131 74 322 0.0 5.0 0.00 0.01 0.01 55 1016.1
20210925210126 74 298 2.0 9.0 0.00 0.01 0.01 54 1016.4
20210925203122 73 246 2.0 5.0 0.00 0.01 0.01 56 1016.3
20210925200128 74 200 0.0 3.0 0.00 0.01 0.01 56 1016.5
20210925193120 74 189 0.0 5.0 0.00 0.01 0.01 56 1016.7
20210925190131 73 255 1.0 9.0 0.00 0.01 0.01 57 1016.9
20210925183123 73 219 4.0 8.0 0.00 0.01 0.01 52 1017.2
20210925180136 73 238 4.0 8.0 0.00 0.01 0.01 52 1017.8
20210925173126 72 234 2.0 11.0 0.00 0.01 0.01 56 1018.5
20210925170118 71 232 3.0 9.0 0.00 0.01 0.01 58 1019.0
20210925163129 69 244 2.0 7.0 0.00 0.01 0.01 64 1019.3
20210925160121 69 219 2.0 6.0 0.00 0.01 0.01 62 1019.7
20210925153136 67 241 2.0 6.0 0.00 0.01 0.01 72 1020.1
20210925150127 65 230 4.0 7.0 0.00 0.01 0.01 75 1020.5
20210925143122 62 242 3.0 6.0 0.00 0.01 0.01 80 1020.5
20210925140133 60 245 3.0 7.0 0.00 0.01 0.01 85 1020.8
20210925133124 57 241 2.0 6.0 0.00 0.01 0.01 89 1021.0
20210925130135 55 243 3.0 7.0 0.00 0.01 0.01 92 1020.8
20210925123126 52 273 1.0 5.0 0.00 0.01 0.01 96 1021.0
20210925120137 50 273 0.0 3.0 0.00 0.01 0.01 97 1020.9
20210925113128 49 273 1.0 3.0 0.00 0.01 0.01 96 1020.9
20210925110124 48 273 0.0 1.0 0.01 0.01 0.01 96 1020.6
20210925103116 49 273 0.0 0.0 0.01 0.01 0.01 96 1020.6
20210925100130 50 273 0.0 0.0 0.00 0.00 0.00 96 1020.5
20210925093123 50 273 0.0 0.0 0.00 0.00 0.00 96 1020.5
20210925090137 50 273 0.0 1.0 0.00 0.00 0.00 95 1020.2
20210925083129 51 273 0.0 0.0 0.00 0.00 0.00 95 1020.3
20210925080122 51 273 0.0 1.0 0.00 0.00 0.00 95 1020.6
20210925073133 51 273 0.0 4.0 0.00 0.00 0.00 96 1020.7
20210925070124 51 273 0.0 1.0 0.00 0.00 0.00 96 1020.7
20210925063131 51 273 0.0 0.0 0.00 0.00 0.00 95 1020.7
20210925060123 51 273 0.0 1.0 0.00 0.00 0.00 95 1020.8